createdAt,value
2023-04-17T00:02:56.726Z,99918.31
2023-04-17T00:05:59.379Z,99913.34
2023-04-17T00:09:01.536Z,99920.38
2023-04-17T00:12:04.220Z,99909.72
2023-04-17T00:15:07.213Z,99914.59
2023-04-17T00:18:09.669Z,99904.75
2023-04-17T00:21:11.932Z,99902.94
2023-04-17T00:24:14.527Z,99910.16
2023-04-17T00:27:16.700Z,99907.34
2023-04-17T00:30:19.282Z,99901.78
2023-04-17T00:33:21.487Z,99904.28
2023-04-17T00:36:23.962Z,99909.16
2023-04-17T00:39:26.384Z,99908.00
2023-04-17T00:42:28.798Z,99915.47
2023-04-17T00:45:31.672Z,99907.78
2023-04-17T00:48:35.618Z,99909.56
2023-04-17T00:51:38.398Z,99908.69
2023-04-17T00:54:40.908Z,99907.31
2023-04-17T00:57:44.439Z,99911.78
2023-04-17T01:00:47.097Z,99907.50
2023-04-17T01:03:50.967Z,99906.38
2023-04-17T01:06:53.661Z,99907.06
2023-04-17T01:09:56.108Z,99907.25
2023-04-17T01:13:06.559Z,99902.72
2023-04-17T01:16:08.995Z,99903.94
2023-04-17T01:19:14.848Z,99901.97
2023-04-17T01:22:17.054Z,99904.00
2023-04-17T01:25:19.734Z,99907.34
2023-04-17T01:28:22.113Z,99896.53
2023-04-17T01:31:26.305Z,99901.25
2023-04-17T01:34:29.097Z,99899.94
2023-04-17T01:37:31.572Z,99902.66
2023-04-17T01:40:33.769Z,99895.44
2023-04-17T01:43:41.232Z,99887.56
2023-04-17T01:46:44.250Z,99896.50
2023-04-17T01:49:46.827Z,99894.94
2023-04-17T01:52:49.069Z,99894.72
2023-04-17T01:55:52.148Z,99898.94
2023-04-17T01:58:54.519Z,99902.59
2023-04-17T02:01:57.424Z,99881.69
2023-04-17T02:04:59.974Z,99885.75
2023-04-17T02:08:02.278Z,99892.78
2023-04-17T02:11:04.756Z,99890.62
2023-04-17T02:14:06.894Z,99885.69
2023-04-17T02:17:09.370Z,99884.22
2023-04-17T02:20:12.321Z,99898.12
2023-04-17T02:23:14.639Z,99893.00
2023-04-17T02:26:17.144Z,99885.44
2023-04-17T02:29:19.606Z,99889.44
2023-04-17T02:32:22.473Z,99885.69
2023-04-17T02:35:27.312Z,99887.97
2023-04-17T02:38:30.881Z,99880.63
2023-04-17T02:41:33.215Z,99879.47
2023-04-17T02:44:36.032Z,99881.06
2023-04-17T02:47:38.208Z,99875.62
2023-04-17T02:50:40.707Z,99880.16
2023-04-17T02:53:43.800Z,99878.44
2023-04-17T02:56:46.216Z,99877.81
2023-04-17T02:59:48.649Z,99881.41
2023-04-17T03:02:51.303Z,99876.50
2023-04-17T03:05:53.858Z,99876.16
2023-04-17T03:08:56.953Z,99885.00
2023-04-17T03:11:59.712Z,99885.78
2023-04-17T03:15:02.425Z,99886.91
2023-04-17T03:18:04.812Z,99883.84
2023-04-17T03:21:07.731Z,99890.28
2023-04-17T03:24:11.556Z,99894.94
2023-04-17T03:27:14.297Z,99888.03
2023-04-17T03:30:16.781Z,99891.50
2023-04-17T03:33:19.959Z,99890.91
2023-04-17T03:36:23.326Z,99900.88
2023-04-17T03:39:27.053Z,99902.75
2023-04-17T03:42:29.219Z,99908.31
2023-04-17T03:45:31.600Z,99904.38
2023-04-17T03:48:33.780Z,99895.44
2023-04-17T03:51:36.301Z,99901.78
2023-04-17T03:54:38.948Z,99895.56
2023-04-17T03:57:41.436Z,99901.13
2023-04-17T04:00:45.655Z,99897.94
2023-04-17T04:03:49.244Z,99910.06
2023-04-17T04:06:54.360Z,99907.66
2023-04-17T04:09:56.988Z,99910.59
2023-04-17T04:12:59.196Z,99912.53
2023-04-17T04:16:01.941Z,99919.63
2023-04-17T04:19:04.489Z,99915.47
2023-04-17T04:22:07.861Z,99918.44
2023-04-17T04:25:12.266Z,99913.66
2023-04-17T04:28:17.734Z,99919.22
2023-04-17T04:31:20.123Z,99923.53
2023-04-17T04:34:25.792Z,99926.09
2023-04-17T04:37:29.848Z,99937.53
2023-04-17T04:40:38.235Z,99935.72
2023-04-17T04:43:41.645Z,99942.06
2023-04-17T04:46:45.206Z,99948.84
2023-04-17T04:49:47.532Z,99952.12
2023-04-17T04:52:51.439Z,99951.91
2023-04-17T04:55:53.860Z,99959.03
2023-04-17T04:58:56.780Z,99961.75
2023-04-17T05:01:59.505Z,99964.13
2023-04-17T05:05:02.490Z,99962.78
2023-04-17T05:08:06.738Z,99968.78
2023-04-17T05:11:09.830Z,99960.88
2023-04-17T05:14:12.333Z,99966.41
2023-04-17T05:17:15.290Z,99972.88
2023-04-17T05:20:17.639Z,99969.94
2023-04-17T05:23:22.805Z,99966.59
2023-04-17T05:26:25.490Z,99978.81
2023-04-17T05:29:28.129Z,99971.25
2023-04-17T05:32:31.366Z,99977.47
2023-04-17T05:35:34.074Z,99968.66
2023-04-17T05:38:36.428Z,99976.56
2023-04-17T05:41:41.584Z,99977.47
2023-04-17T05:44:43.788Z,99979.75
2023-04-17T05:47:46.747Z,99981.78
2023-04-17T05:50:50.274Z,99983.84
2023-04-17T05:53:52.845Z,99974.12
2023-04-17T05:56:57.417Z,99985.81
2023-04-17T06:00:00.366Z,99982.03
2023-04-17T06:03:03.012Z,99984.75
2023-04-17T06:06:06.235Z,99984.66
2023-04-17T06:09:09.540Z,99983.41
2023-04-17T06:12:15.959Z,99988.06
2023-04-17T06:15:18.481Z,99984.22
2023-04-17T06:18:21.062Z,99992.94
2023-04-17T06:21:23.365Z,99999.16
2023-04-17T06:24:26.854Z,99992.50
2023-04-17T06:27:30.480Z,99993.16
2023-04-17T06:30:32.937Z,99993.50
2023-04-17T06:33:35.145Z,100000.31
2023-04-17T06:36:38.757Z,100006.31
2023-04-17T06:39:41.314Z,99999.75
2023-04-17T06:42:44.066Z,100011.41
2023-04-17T06:45:47.644Z,100010.84
2023-04-17T06:48:52.139Z,100009.94
2023-04-17T06:51:54.400Z,100006.75
2023-04-17T06:54:57.159Z,100015.38
2023-04-17T06:57:59.330Z,100022.06
2023-04-17T07:01:02.381Z,100026.34
2023-04-17T07:04:10.769Z,100023.97
2023-04-17T07:07:13.324Z,100028.94
2023-04-17T07:10:19.523Z,100026.00
2023-04-17T07:13:22.156Z,100025.12
2023-04-17T07:16:24.515Z,100027.56
2023-04-17T07:19:30.475Z,100021.72
2023-04-17T07:22:34.306Z,100025.06
2023-04-17T07:25:36.741Z,100020.59
2023-04-17T07:28:39.684Z,100025.88
2023-04-17T07:31:42.257Z,100017.19
2023-04-17T07:34:44.502Z,100018.53
2023-04-17T07:37:46.920Z,100026.09
2023-04-17T07:40:49.105Z,100023.50
2023-04-17T07:43:51.625Z,100027.66
2023-04-17T07:46:53.853Z,100032.09
2023-04-17T07:49:56.663Z,100035.28
2023-04-17T07:52:59.076Z,100037.63
2023-04-17T07:56:02.120Z,100043.34
2023-04-17T07:59:04.936Z,100036.63
2023-04-17T08:02:07.961Z,100041.84
2023-04-17T08:05:11.038Z,100036.28
2023-04-17T08:08:13.393Z,100029.84
2023-04-17T08:11:16.339Z,100033.13
2023-04-17T08:14:20.371Z,100036.03
2023-04-17T08:17:23.595Z,100033.91
2023-04-17T08:20:27.297Z,100034.13
2023-04-17T08:23:32.492Z,100034.28
2023-04-17T08:26:35.350Z,100034.38
2023-04-17T08:29:39.783Z,100036.09
2023-04-17T08:32:45.592Z,100029.25
2023-04-17T08:35:49.101Z,100039.22
2023-04-17T08:38:52.462Z,100033.16
2023-04-17T08:42:03.301Z,100031.13
2023-04-17T08:45:09.425Z,100037.81
2023-04-17T08:48:13.472Z,100033.13
2023-04-17T08:51:16.511Z,100033.19
2023-04-17T08:54:22.161Z,100036.84
2023-04-17T08:57:24.434Z,100031.75
2023-04-17T09:00:32.172Z,100029.88
2023-04-17T09:03:47.182Z,100026.75
2023-04-17T09:06:54.382Z,100029.09
2023-04-17T09:09:57.321Z,100029.09
2023-04-17T09:13:01.194Z,100027.16
2023-04-17T09:16:08.767Z,100020.47
2023-04-17T09:19:11.788Z,100026.75
2023-04-17T09:22:22.378Z,100024.75
2023-04-17T09:25:26.411Z,100023.63
2023-04-17T09:28:30.133Z,100022.81
2023-04-17T09:31:34.760Z,100022.84
2023-04-17T09:34:41.455Z,100016.50
2023-04-17T09:37:56.529Z,100025.94
2023-04-17T09:40:58.937Z,100026.19
2023-04-17T09:44:07.028Z,100011.69
2023-04-17T09:47:11.351Z,100009.97
2023-04-17T09:50:18.407Z,100024.78
2023-04-17T09:53:20.696Z,100015.19
2023-04-17T09:56:24.477Z,100018.81
2023-04-17T09:59:27.601Z,100013.72
2023-04-17T10:02:30.794Z,100011.62
2023-04-17T10:05:33.339Z,99999.28
2023-04-17T10:08:35.768Z,100007.56
2023-04-17T10:11:41.722Z,100002.22
2023-04-17T10:14:51.828Z,100003.63
2023-04-17T10:17:58.004Z,99995.63
2023-04-17T10:21:25.246Z,99998.78
2023-04-17T10:24:28.276Z,99998.78
2023-04-17T10:27:33.564Z,100003.81
2023-04-17T10:30:55.526Z,99989.69
2023-04-17T10:40:11.144Z,99989.34
2023-04-17T10:43:17.654Z,99986.37
2023-04-17T10:46:28.185Z,99987.09
2023-04-17T10:49:47.193Z,99986.37
2023-04-17T10:52:49.349Z,99988.59
2023-04-17T10:55:52.398Z,99991.69
2023-04-17T10:59:00.492Z,99990.94
2023-04-17T11:02:04.780Z,99984.19
2023-04-17T11:05:08.074Z,99988.81
2023-04-17T11:08:11.665Z,99987.19
2023-04-17T11:11:18.506Z,99993.13
2023-04-17T11:14:23.634Z,99987.00
2023-04-17T11:17:26.377Z,99987.25
2023-04-17T11:20:36.146Z,99990.72
2023-04-17T11:23:39.310Z,99987.69
2023-04-17T11:26:51.164Z,99984.09
2023-04-17T11:29:53.312Z,99992.94
2023-04-17T11:33:00.885Z,99980.16
2023-04-17T11:36:05.581Z,99980.47
2023-04-17T11:39:09.071Z,99981.34
2023-04-17T11:42:11.518Z,99987.03
2023-04-17T11:45:19.609Z,99984.75
2023-04-17T11:48:24.819Z,99984.38
2023-04-17T11:51:27.802Z,99977.75
2023-04-17T11:54:31.906Z,99975.88
2023-04-17T11:57:43.551Z,99978.50
2023-04-17T12:00:45.945Z,99971.13
2023-04-17T12:03:48.647Z,99975.44
2023-04-17T12:06:51.408Z,99974.59
2023-04-17T12:10:00.690Z,99978.09
2023-04-17T12:13:02.864Z,99976.75
2023-04-17T12:16:05.765Z,99972.94
2023-04-17T12:19:08.677Z,99966.38
2023-04-17T12:22:11.148Z,99966.81
2023-04-17T12:25:13.563Z,99978.00
2023-04-17T12:28:16.551Z,99970.56
2023-04-17T12:31:19.809Z,99979.81
2023-04-17T12:34:22.400Z,99963.34
2023-04-17T12:37:25.349Z,99968.81
2023-04-17T12:40:28.026Z,99979.13
2023-04-17T12:43:32.532Z,99968.31
2023-04-17T12:46:35.245Z,99964.75
2023-04-17T12:49:37.587Z,99966.00
2023-04-17T12:52:41.202Z,99954.06
2023-04-17T12:55:46.129Z,99953.84
2023-04-17T12:58:50.161Z,99952.03
2023-04-17T13:01:52.408Z,99944.34
2023-04-17T13:04:56.491Z,99941.78
2023-04-17T13:07:58.729Z,99940.00
2023-04-17T13:11:03.798Z,99935.03
2023-04-17T13:14:06.104Z,99935.97
2023-04-17T13:17:08.962Z,99939.94
2023-04-17T13:20:13.404Z,99934.56
2023-04-17T13:23:16.850Z,99924.09
2023-04-17T13:26:20.340Z,99919.22
2023-04-17T13:29:22.808Z,99925.97
2023-04-17T13:32:43.359Z,99924.16
2023-04-17T13:39:11.644Z,99919.06
2023-04-17T13:42:22.592Z,99933.81
2023-04-17T13:45:26.800Z,99932.87
2023-04-17T13:48:31.617Z,99935.81
2023-04-17T13:51:34.505Z,99945.53
2023-04-17T13:54:36.979Z,99954.44
2023-04-17T13:57:40.659Z,99950.19
2023-04-17T14:00:43.380Z,99944.19
2023-04-17T14:03:48.276Z,99953.47
2023-04-17T14:07:00.336Z,99939.50
2023-04-17T14:18:02.993Z,99939.72
2023-04-17T14:21:25.707Z,99936.06
2023-04-17T14:25:01.264Z,99931.75
2023-04-17T14:31:50.974Z,99921.16
2023-04-17T14:34:53.316Z,99919.69
2023-04-17T14:37:55.752Z,99918.19
2023-04-17T14:40:57.985Z,99919.84
2023-04-17T14:44:00.775Z,99912.00
2023-04-17T14:47:03.192Z,99908.25
2023-04-17T14:50:06.488Z,99909.91
2023-04-17T14:53:08.732Z,99911.53
2023-04-17T14:56:11.260Z,99911.19
2023-04-17T14:59:13.490Z,99910.75
2023-04-17T15:02:16.319Z,99898.69
2023-04-17T15:05:21.650Z,99905.38
2023-04-17T15:08:24.197Z,99909.37
2023-04-17T15:11:26.428Z,99913.44
2023-04-17T15:14:29.895Z,99914.50
2023-04-17T15:17:32.112Z,99911.84
2023-04-17T15:20:36.382Z,99916.87
2023-04-17T15:23:38.694Z,99920.03
2023-04-17T15:26:41.803Z,99914.44
2023-04-17T15:29:46.824Z,99919.91
2023-04-17T15:32:49.279Z,99911.84
2023-04-17T15:35:55.990Z,99910.56
2023-04-17T15:38:58.444Z,99907.75
2023-04-17T15:42:01.004Z,99915.56
2023-04-17T15:45:04.045Z,99914.25
2023-04-17T15:48:06.368Z,99914.12
2023-04-17T15:51:09.541Z,99917.44
2023-04-17T15:54:12.120Z,99917.87
2023-04-17T15:57:14.632Z,99920.97
2023-04-17T16:00:17.206Z,99926.06
2023-04-17T16:03:20.072Z,99913.06
2023-04-17T16:06:22.456Z,99916.00
2023-04-17T16:09:24.997Z,99916.53
2023-04-17T16:12:28.224Z,99920.03
2023-04-17T16:15:30.760Z,99922.41
2023-04-17T16:18:32.968Z,99916.44
2023-04-17T16:21:36.591Z,99916.44
2023-04-17T16:24:38.715Z,99910.84
2023-04-17T16:27:41.437Z,99924.47
2023-04-17T16:30:43.729Z,99911.06
2023-04-17T16:33:46.184Z,99917.50
2023-04-17T16:36:49.474Z,99918.28
2023-04-17T16:39:52.030Z,99922.09
2023-04-17T16:42:54.187Z,99922.09
2023-04-17T16:45:57.629Z,99927.72
2023-04-17T16:49:00.649Z,99928.03
2023-04-17T16:52:03.131Z,99926.88
2023-04-17T16:55:06.239Z,99930.56
2023-04-17T16:58:08.647Z,99923.69
2023-04-17T17:01:10.914Z,99925.47
2023-04-17T17:04:13.448Z,99924.25
2023-04-17T17:07:15.655Z,99927.41
2023-04-17T17:10:18.201Z,99932.00
2023-04-17T17:13:20.420Z,99934.38
2023-04-17T17:16:22.929Z,99934.38
2023-04-17T17:19:25.205Z,99930.41
2023-04-17T17:22:27.627Z,99935.19
2023-04-17T17:25:29.808Z,99934.84
2023-04-17T17:28:33.120Z,99930.09
2023-04-17T17:31:35.356Z,99932.56
2023-04-17T17:34:37.890Z,99928.09
2023-04-17T17:37:40.113Z,99931.06
2023-04-17T17:40:42.562Z,99933.00
2023-04-17T17:43:44.671Z,99937.47
2023-04-17T17:46:47.217Z,99927.53
2023-04-17T17:49:49.550Z,99928.06
2023-04-17T17:52:51.960Z,99938.88
2023-04-17T17:55:55.740Z,99940.72
2023-04-17T17:58:58.265Z,99946.84
2023-04-17T18:02:02.086Z,99937.72
2023-04-17T18:05:05.238Z,99940.78
2023-04-17T18:08:07.360Z,99940.63
2023-04-17T18:11:09.804Z,99944.50
2023-04-17T18:14:12.135Z,99951.00
2023-04-17T18:17:14.710Z,99952.41
2023-04-17T18:20:16.979Z,99949.94
2023-04-17T18:23:19.492Z,99953.34
2023-04-17T18:26:22.350Z,99959.16
2023-04-17T18:29:24.771Z,99963.37
2023-04-17T18:32:27.024Z,99959.16
2023-04-17T18:35:29.436Z,99968.09
2023-04-17T18:38:31.984Z,99966.00
2023-04-17T18:41:34.675Z,99964.25
2023-04-17T18:44:37.352Z,99967.12
2023-04-17T18:47:39.848Z,99967.38
2023-04-17T18:50:42.174Z,99971.16
2023-04-17T18:53:44.674Z,99975.00
2023-04-17T18:56:46.797Z,99964.84
2023-04-17T18:59:49.235Z,99967.81
2023-04-17T19:02:51.439Z,99970.75
2023-04-17T19:05:53.993Z,99974.44
2023-04-17T19:08:57.082Z,99977.00
2023-04-17T19:11:59.735Z,99976.22
2023-04-17T19:15:02.524Z,99976.56
2023-04-17T19:18:06.668Z,99986.91
2023-04-17T19:21:09.024Z,99986.47
2023-04-17T19:24:11.511Z,99991.22
2023-04-17T19:27:13.788Z,99986.81
2023-04-17T19:30:16.355Z,99996.38
2023-04-17T19:33:18.988Z,99989.66
2023-04-17T19:36:21.487Z,99991.03
2023-04-17T19:39:26.602Z,99988.81
2023-04-17T19:42:29.127Z,99988.47
2023-04-17T19:45:32.639Z,99989.84
2023-04-17T19:48:35.576Z,99985.78
2023-04-17T19:51:38.525Z,99985.66
2023-04-17T19:54:43.712Z,99980.88
2023-04-17T19:57:45.853Z,99980.88
2023-04-17T20:00:48.343Z,99968.31
2023-04-17T20:03:51.396Z,99973.44
2023-04-17T20:06:53.629Z,99975.69
2023-04-17T20:09:56.348Z,99969.00
2023-04-17T20:12:58.580Z,99979.44
2023-04-17T20:16:01.025Z,99981.81
2023-04-17T20:19:03.282Z,99979.31
2023-04-17T20:22:05.808Z,99976.59
2023-04-17T20:25:08.495Z,99974.31
2023-04-17T20:28:10.961Z,99982.03
2023-04-17T20:31:13.229Z,99987.47
2023-04-17T20:34:15.843Z,99974.78
2023-04-17T20:37:18.018Z,99982.03
2023-04-17T20:40:20.555Z,99992.69
2023-04-17T20:43:22.804Z,99985.66
2023-04-17T20:46:26.411Z,99995.28
2023-04-17T20:49:28.632Z,99995.84
2023-04-17T20:52:31.025Z,100000.37
2023-04-17T20:55:33.211Z,100003.56
2023-04-17T20:58:35.725Z,100000.16
2023-04-17T21:01:37.938Z,100003.44
2023-04-17T21:04:40.417Z,100003.94
2023-04-17T21:07:42.549Z,100005.38
2023-04-17T21:10:45.001Z,100011.53
2023-04-17T21:13:48.020Z,100003.69
2023-04-17T21:16:50.488Z,100006.53
2023-04-17T21:19:52.642Z,100008.12
2023-04-17T21:22:55.108Z,100013.69
2023-04-17T21:25:57.258Z,100011.75
2023-04-17T21:28:59.645Z,100005.63
2023-04-17T21:32:01.926Z,100004.94
2023-04-17T21:35:04.768Z,100010.97
2023-04-17T21:38:06.942Z,100012.97
2023-04-17T21:41:09.430Z,100018.09
2023-04-17T21:44:11.877Z,100013.47
2023-04-17T21:47:16.426Z,100004.59
2023-04-17T21:50:18.876Z,100000.09
2023-04-17T21:53:21.308Z,100006.31
2023-04-17T21:56:24.067Z,100003.81
2023-04-17T21:59:26.583Z,100005.97
2023-04-17T22:02:28.896Z,100007.22
2023-04-17T22:05:31.363Z,100007.00
2023-04-17T22:08:33.544Z,100013.31
2023-04-17T22:11:37.997Z,100013.22
2023-04-17T22:14:40.785Z,100011.97
2023-04-17T22:17:43.251Z,100010.94
2023-04-17T22:20:45.712Z,100011.88
2023-04-17T22:23:48.233Z,100007.00
2023-04-17T22:26:50.424Z,100006.75
2023-04-17T22:29:52.884Z,100009.69
2023-04-17T22:32:56.570Z,100014.91
2023-04-17T22:35:59.016Z,100012.94
2023-04-17T22:39:01.215Z,100008.16
2023-04-17T22:42:03.745Z,100014.63
2023-04-17T22:45:06.389Z,100026.16
2023-04-17T22:48:08.888Z,100017.66
2023-04-17T22:51:12.694Z,100024.88
2023-04-17T22:54:22.686Z,100026.34
2023-04-17T22:57:25.634Z,100025.81
2023-04-17T23:00:28.258Z,100022.53
2023-04-17T23:03:30.527Z,100019.81
2023-04-17T23:06:32.923Z,100029.41
2023-04-17T23:09:35.190Z,100028.72
2023-04-17T23:12:37.658Z,100026.50
2023-04-17T23:15:39.822Z,100034.16
2023-04-17T23:18:42.313Z,100032.00
2023-04-17T23:21:44.428Z,100031.19
2023-04-17T23:24:46.903Z,100026.50
2023-04-17T23:27:49.042Z,100024.59
2023-04-17T23:30:51.551Z,100026.38
2023-04-17T23:33:53.686Z,100023.75
2023-04-17T23:36:56.149Z,100028.72
2023-04-17T23:39:58.312Z,100022.94
2023-04-17T23:43:00.866Z,100027.34
2023-04-17T23:46:03.104Z,100018.31
2023-04-17T23:49:05.579Z,100018.78
2023-04-17T23:52:07.721Z,100022.69
2023-04-17T23:55:10.208Z,100012.69
2023-04-17T23:58:12.372Z,100012.38
